PWSweather.com
Personal Weather Stations
Station Observations
MAHIABEACH
Mahia Beach, Mahia Peninsula Hawkes Bay -NZ 4108

Mahia BeachMahia Peninsula Hawkes Bay -NZ 4108

Lat: -39.087594, Lon: 177.87261128

Elevation: 20

Station Type: ScientificSales WS1093

http://wairoa.net/mahia/index.htm

Latest ConditionsUpdated 11:15:05 AM GMT+12:12 Tuesday, Dec 23, 2014
Currently Today's Max Today's Min Today's Average
Temperature 70.9°F21.6°C 72.0°F22.2°C 61.0°F16.1°C 64.9°F18.3°C
Dew Point 63.0°F17.2°C 66.7°F19.3°C 60.7°F15.9°C 62.8°F17.1°C
Winds 4.9 mph E7.9 kmh E 5.0 mph NE8.0 kmh NE - 1.6 mph 2.6 kmh
Wind Gusts 11.4 mph18.3 kmh 11.4 mph18.3 kmh - -
Humidity 76% 99% 76% 93%
Pressure 30.30 in1026.1 mb 30.30 in1026.1 mb 30.19 in1022.4 mb -
Hour Temp Dew Point Humidity Winds Wind Gusts Pressure Precip Precip Rate Daily Precip Total
11:15 AM 70.9°F21.6°C 63.0°F17.2°C 76% 4.9 mph E7.9 kmh E 11.4 mph18.3 kmh 30.30 in1026.1 mb 0.00 in0.0 mm 0.00 in/hr0.0 mm/hr 0.00 in0.0 mm
11:00 AM 71.4°F21.9°C 63.9°F17.7°C 77% 5.0 mph NE8.0 kmh NE 11.4 mph18.3 kmh 30.30 in1026.1 mb 0.00 in0.0 mm 0.00 in/hr0.0 mm/hr 0.00 in0.0 mm
10:45 AM 72.0°F22.2°C 64.4°F18.0°C 77% 3.9 mph ENE6.3 kmh ENE 10.7 mph17.2 kmh 30.30 in1026.1 mb 0.00 in0.0 mm 0.00 in/hr0.0 mm/hr 0.00 in0.0 mm
10:30 AM 70.3°F21.3°C 63.9°F17.7°C 80% 4.4 mph E7.1 kmh E 10.7 mph17.2 kmh 30.30 in1026.1 mb 0.00 in0.0 mm 0.00 in/hr0.0 mm/hr 0.00 in0.0 mm
10:15 AM 68.7°F20.4°C 64.7°F18.2°C 87% 4.8 mph NE7.7 kmh NE 10.7 mph17.2 kmh 30.30 in1026.1 mb 0.00 in0.0 mm 0.00 in/hr0.0 mm/hr 0.00 in0.0 mm
10:00 AM 69.4°F20.8°C 64.1°F17.8°C 83% 4.1 mph NE6.6 kmh NE 11.4 mph18.3 kmh 30.29 in1025.7 mb 0.00 in0.0 mm 0.00 in/hr0.0 mm/hr 0.00 in0.0 mm
09:45 AM 70.5°F21.4°C 63.4°F17.4°C 78% 4.1 mph NNE6.6 kmh NNE 9.2 mph14.8 kmh 30.29 in1025.7 mb 0.00 in0.0 mm 0.00 in/hr0.0 mm/hr 0.00 in0.0 mm
09:30 AM 67.6°F19.8°C 64.6°F18.1°C 90% 3.5 mph NE5.6 kmh NE 9.2 mph14.8 kmh 30.29 in1025.7 mb 0.00 in0.0 mm 0.00 in/hr0.0 mm/hr 0.00 in0.0 mm
09:15 AM 67.1°F19.5°C 64.1°F17.8°C 90% 3.2 mph NE5.1 kmh NE 8.3 mph13.4 kmh 30.29 in1025.7 mb 0.00 in0.0 mm 0.00 in/hr0.0 mm/hr 0.00 in0.0 mm
09:00 AM 67.3°F19.6°C 63.3°F17.4°C 87% 3.4 mph NE5.5 kmh NE 7.6 mph12.2 kmh 30.29 in1025.7 mb 0.00 in0.0 mm 0.00 in/hr0.0 mm/hr 0.00 in0.0 mm
08:45 AM 67.1°F19.5°C 64.1°F17.8°C 90% 3.2 mph NE5.1 kmh NE 7.6 mph12.2 kmh 30.29 in1025.7 mb 0.00 in0.0 mm 0.00 in/hr0.0 mm/hr 0.00 in0.0 mm
08:30 AM 67.1°F19.5°C 64.4°F18.0°C 91% 3.1 mph NE5.0 kmh NE 6.9 mph11.1 kmh 30.29 in1025.7 mb 0.00 in0.0 mm 0.00 in/hr0.0 mm/hr 0.00 in0.0 mm
08:15 AM 67.1°F19.5°C 64.1°F17.8°C 90% 3.0 mph NE4.8 kmh NE 8.3 mph13.4 kmh 30.28 in1025.4 mb 0.00 in0.0 mm 0.00 in/hr0.0 mm/hr 0.00 in0.0 mm
08:00 AM 67.1°F19.5°C 64.1°F17.8°C 90% 2.2 mph NE3.5 kmh NE 6.9 mph11.1 kmh 30.27 in1025.1 mb 0.00 in0.0 mm 0.00 in/hr0.0 mm/hr 0.00 in0.0 mm
07:45 AM 67.1°F19.5°C 64.1°F17.8°C 90% 1.3 mph NNE2.1 kmh NNE 5.4 mph8.7 kmh 30.27 in1025.1 mb 0.00 in0.0 mm 0.00 in/hr0.0 mm/hr 0.00 in0.0 mm
07:30 AM 66.7°F19.3°C 64.1°F17.8°C 91% 1.9 mph NE3.1 kmh NE 5.4 mph8.7 kmh 30.26 in1024.7 mb 0.00 in0.0 mm 0.00 in/hr0.0 mm/hr 0.00 in0.0 mm
07:15 AM 67.1°F19.5°C 63.5°F17.5°C 88% 1.4 mph ENE2.3 kmh ENE 4.5 mph7.2 kmh 30.26 in1024.7 mb 0.00 in0.0 mm 0.00 in/hr0.0 mm/hr 0.00 in0.0 mm
07:00 AM 66.9°F19.4°C 63.6°F17.6°C 89% 0.8 mph ENE1.3 kmh ENE 3.1 mph5.0 kmh 30.25 in1024.4 mb 0.00 in0.0 mm 0.00 in/hr0.0 mm/hr 0.00 in0.0 mm
06:45 AM 66.4°F19.1°C 63.4°F17.4°C 90% 1.6 mph NE2.6 kmh NE 4.5 mph7.2 kmh 30.25 in1024.4 mb 0.00 in0.0 mm 0.00 in/hr0.0 mm/hr 0.00 in0.0 mm
06:30 AM 67.5°F19.7°C 63.5°F17.5°C 87% 1.1 mph ENE1.8 kmh ENE 4.5 mph7.2 kmh 30.25 in1024.4 mb 0.00 in0.0 mm 0.00 in/hr0.0 mm/hr 0.00 in0.0 mm
06:15 AM 68.2°F20.1°C 64.8°F18.2°C 89% 2.6 mph E4.2 kmh E 6.0 mph9.7 kmh 30.24 in1024.0 mb 0.00 in0.0 mm 0.00 in/hr0.0 mm/hr 0.00 in0.0 mm
06:00 AM 66.9°F19.4°C 66.7°F19.3°C 99% 0.1 mph N0.2 kmh N 2.2 mph3.5 kmh 30.24 in1024.0 mb 0.00 in0.0 mm 0.00 in/hr0.0 mm/hr 0.00 in0.0 mm
05:45 AM 62.6°F17.0°C 62.3°F16.8°C 99% 0.1 mph NNW0.2 kmh NNW 1.6 mph2.6 kmh 30.23 in1023.7 mb 0.00 in0.0 mm 0.00 in/hr0.0 mm/hr 0.00 in0.0 mm
05:30 AM 61.5°F16.4°C 61.3°F16.3°C 99% 0.2 mph NNW0.3 kmh NNW 2.2 mph3.5 kmh 30.23 in1023.7 mb 0.00 in0.0 mm 0.00 in/hr0.0 mm/hr 0.00 in0.0 mm
05:15 AM 61.2°F16.2°C 60.9°F16.1°C 99% 0.7 mph NNE1.1 kmh NNE 3.1 mph5.0 kmh 30.22 in1023.4 mb 0.00 in0.0 mm 0.00 in/hr0.0 mm/hr 0.00 in0.0 mm
05:00 AM 61.0°F16.1°C 60.7°F15.9°C 99% 0.6 mph N1.0 kmh N 3.1 mph5.0 kmh 30.22 in1023.4 mb 0.00 in0.0 mm 0.00 in/hr0.0 mm/hr 0.00 in0.0 mm
04:45 AM 61.2°F16.2°C 60.9°F16.1°C 99% 0.5 mph N0.8 kmh N 3.1 mph5.0 kmh 30.21 in1023.0 mb 0.00 in0.0 mm 0.00 in/hr0.0 mm/hr 0.00 in0.0 mm
04:30 AM 61.7°F16.5°C 61.4°F16.3°C 99% 0.4 mph NNE0.6 kmh NNE 3.1 mph5.0 kmh 30.22 in1023.4 mb 0.00 in0.0 mm 0.00 in/hr0.0 mm/hr 0.00 in0.0 mm
04:15 AM 62.2°F16.8°C 62.0°F16.7°C 99% 1.4 mph E2.3 kmh E 5.4 mph8.7 kmh 30.21 in1023.0 mb 0.00 in0.0 mm 0.00 in/hr0.0 mm/hr 0.00 in0.0 mm
04:00 AM 62.2°F16.8°C 62.0°F16.7°C 99% 1.5 mph E2.4 kmh E 5.4 mph8.7 kmh 30.21 in1023.0 mb 0.00 in0.0 mm 0.00 in/hr0.0 mm/hr 0.00 in0.0 mm
03:45 AM 61.5°F16.4°C 61.3°F16.3°C 99% 0.3 mph N0.5 kmh N 3.8 mph6.1 kmh 30.20 in1022.7 mb 0.00 in0.0 mm 0.00 in/hr0.0 mm/hr 0.00 in0.0 mm
03:30 AM 61.2°F16.2°C 60.9°F16.1°C 99% 0.2 mph NE0.3 kmh NE 1.6 mph2.6 kmh 30.21 in1023.0 mb 0.00 in0.0 mm 0.00 in/hr0.0 mm/hr 0.00 in0.0 mm
03:15 AM 61.2°F16.2°C 60.9°F16.1°C 99% 0.3 mph N0.5 kmh N 2.2 mph3.5 kmh 30.20 in1022.7 mb 0.00 in0.0 mm 0.00 in/hr0.0 mm/hr 0.00 in0.0 mm
03:00 AM 61.2°F16.2°C 60.9°F16.1°C 99% 0.4 mph N0.6 kmh N 3.1 mph5.0 kmh 30.20 in1022.7 mb 0.00 in0.0 mm 0.00 in/hr0.0 mm/hr 0.00 in0.0 mm
02:45 AM 61.3°F16.3°C 61.1°F16.2°C 99% 0.7 mph NNE1.1 kmh NNE 3.1 mph5.0 kmh 30.20 in1022.7 mb 0.00 in0.0 mm 0.00 in/hr0.0 mm/hr 0.00 in0.0 mm
02:30 AM 61.5°F16.4°C 61.3°F16.3°C 99% 0.2 mph NE0.3 kmh NE 2.2 mph3.5 kmh 30.19 in1022.4 mb 0.00 in0.0 mm 0.00 in/hr0.0 mm/hr 0.00 in0.0 mm
02:15 AM 61.9°F16.6°C 61.6°F16.4°C 99% 0.2 mph ESE0.3 kmh ESE 1.6 mph2.6 kmh 30.19 in1022.4 mb 0.00 in0.0 mm 0.00 in/hr0.0 mm/hr 0.00 in0.0 mm
02:00 AM 62.1°F16.7°C 61.8°F16.6°C 99% 0.9 mph E1.4 kmh E 3.1 mph5.0 kmh 30.19 in1022.4 mb 0.00 in0.0 mm 0.00 in/hr0.0 mm/hr 0.00 in0.0 mm
01:45 AM 62.2°F16.8°C 62.0°F16.7°C 99% 0.1 mph NE0.2 kmh NE 1.6 mph2.6 kmh 30.19 in1022.4 mb 0.00 in0.0 mm 0.00 in/hr0.0 mm/hr 0.00 in0.0 mm
01:30 AM 62.2°F16.8°C 62.0°F16.7°C 99% Calm Calm 1.6 mph2.6 kmh 30.19 in1022.4 mb 0.00 in0.0 mm 0.00 in/hr0.0 mm/hr 0.00 in0.0 mm
01:15 AM 62.6°F17.0°C 62.3°F16.8°C 99% 0.1 mph NE0.2 kmh NE 2.2 mph3.5 kmh 30.20 in1022.7 mb 0.00 in0.0 mm 0.00 in/hr0.0 mm/hr 0.00 in0.0 mm
01:00 AM 62.4°F16.9°C 62.2°F16.8°C 99% 0.3 mph ENE0.5 kmh ENE 2.2 mph3.5 kmh 30.20 in1022.7 mb 0.00 in0.0 mm 0.00 in/hr0.0 mm/hr 0.00 in0.0 mm
12:45 AM 62.2°F16.8°C 62.0°F16.7°C 99% 0.2 mph NE0.3 kmh NE 2.2 mph3.5 kmh 30.20 in1022.7 mb 0.00 in0.0 mm 0.00 in/hr0.0 mm/hr 0.00 in0.0 mm
12:30 AM 62.2°F16.8°C 62.0°F16.7°C 99% 0.1 mph NNE0.2 kmh NNE 2.2 mph3.5 kmh 30.20 in1022.7 mb 0.00 in0.0 mm 0.00 in/hr0.0 mm/hr 0.00 in0.0 mm
12:15 AM 62.4°F16.9°C 62.2°F16.8°C 99% 0.7 mph ENE1.1 kmh ENE 2.2 mph3.5 kmh 30.19 in1022.4 mb 0.00 in0.0 mm 0.00 in/hr0.0 mm/hr 0.00 in0.0 mm
12:00 AM 62.2°F16.8°C 62.0°F16.7°C 99% 0.4 mph ENE0.6 kmh ENE 2.2 mph3.5 kmh 30.19 in1022.4 mb 0.00 in0.0 mm 0.00 in/hr0.0 mm/hr 0.00 in0.0 mm